Time;durP1;ratioP1;P1;durP2;ratioP2;P2;SDS_P1;SDS_P2;PMS_P1;PMS_P2;Temp;Humidity;BMP_temperature;BMP_pressure;BME280_temperature;BME280_humidity;BME280_pressure;Samples;Min_cycle;Max_cycle;Signal;HPM_P1;HPM_P2
2023/06/06 00:00:08;;;;;;;5.27;4.00;;;13.40;99.90;;;;;;5065154;28;20314;-81
2023/06/06 00:02:42;;;;;;;5.20;3.83;;;13.40;99.90;;;;;;5038163;28;20319;-79
2023/06/06 00:05:11;;;;;;;5.50;4.00;;;13.30;99.90;;;;;;5042687;28;20234;-78
2023/06/06 00:07:40;;;;;;;4.10;3.67;;;13.30;99.90;;;;;;5040155;28;20282;-80
2023/06/06 00:10:09;;;;;;;6.00;4.07;;;13.20;99.90;;;;;;5039288;28;20233;-81
2023/06/06 00:12:37;;;;;;;7.27;4.23;;;13.20;99.90;;;;;;5038737;28;20225;-82
2023/06/06 00:15:05;;;;;;;5.07;3.80;;;13.10;99.90;;;;;;5041312;28;20668;-82
2023/06/06 00:17:32;;;;;;;5.43;3.90;;;13.10;99.90;;;;;;5040030;28;20343;-83
2023/06/06 00:20:01;;;;;;;6.87;4.20;;;13.00;99.90;;;;;;5043644;28;20689;-84
2023/06/06 00:22:28;;;;;;;5.40;3.83;;;13.00;99.90;;;;;;5037003;28;20223;-83
2023/06/06 00:24:55;;;;;;;5.13;3.80;;;12.90;99.90;;;;;;5041310;28;20710;-84
2023/06/06 00:27:22;;;;;;;5.30;3.90;;;12.90;99.90;;;;;;5041509;28;20235;-82
2023/06/06 00:29:49;;;;;;;4.67;3.83;;;12.80;99.90;;;;;;5042703;28;20555;-83
2023/06/06 00:32:17;;;;;;;5.40;4.37;;;12.80;99.90;;;;;;5041565;28;20280;-80
2023/06/06 00:34:45;;;;;;;7.10;4.27;;;12.70;99.90;;;;;;5038651;28;20219;-81
2023/06/06 00:37:13;;;;;;;6.60;4.20;;;12.70;99.90;;;;;;5036513;28;20227;-83
2023/06/06 00:39:41;;;;;;;5.90;3.80;;;12.70;99.90;;;;;;5040518;28;20225;-80
2023/06/06 00:42:08;;;;;;;5.57;3.67;;;12.70;99.90;;;;;;5040127;28;20222;-82
2023/06/06 00:44:35;;;;;;;4.27;3.87;;;12.60;99.90;;;;;;5036522;28;20227;-82
2023/06/06 00:47:03;;;;;;;5.50;4.00;;;12.60;99.90;;;;;;5042598;28;20286;-83
2023/06/06 00:49:31;;;;;;;4.70;3.77;;;12.50;99.90;;;;;;5038062;28;20696;-81
2023/06/06 00:51:59;;;;;;;5.27;3.73;;;12.50;99.90;;;;;;5044986;28;20307;-81
2023/06/06 00:54:27;;;;;;;5.20;3.60;;;12.50;99.90;;;;;;5040550;28;20324;-82
2023/06/06 00:56:55;;;;;;;5.93;3.80;;;12.40;99.90;;;;;;5036483;28;21034;-82
2023/06/06 00:59:23;;;;;;;7.03;4.20;;;12.40;99.90;;;;;;5039461;28;20236;-82
2023/06/06 01:01:50;;;;;;;5.40;4.00;;;12.40;99.90;;;;;;5043343;28;20782;-81
2023/06/06 01:04:17;;;;;;;8.13;4.73;;;12.30;99.90;;;;;;5042509;28;20684;-82
2023/06/06 01:06:44;;;;;;;6.37;3.83;;;12.30;99.90;;;;;;5033872;28;20287;-82
2023/06/06 01:09:13;;;;;;;4.47;3.57;;;12.30;99.90;;;;;;5043087;28;20313;-81
2023/06/06 01:12:02;;;;;;;6.77;4.23;;;12.20;99.90;;;;;;5043341;28;20242;-80
2023/06/06 01:14:36;;;;;;;5.73;4.23;;;12.20;99.90;;;;;;5041797;28;20326;-80
2023/06/06 01:17:08;;;;;;;5.13;4.17;;;12.20;99.90;;;;;;5042135;28;20229;-81
2023/06/06 01:19:37;;;;;;;5.33;4.13;;;12.10;99.90;;;;;;5036134;28;20227;-82
2023/06/06 01:22:12;;;;;;;5.47;3.30;;;12.10;99.90;;;;;;5046790;28;20265;-82
2023/06/06 01:24:42;;;;;;;4.90;3.73;;;12.10;99.90;;;;;;5035910;28;20315;-83
2023/06/06 01:27:09;;;;;;;5.70;4.03;;;12.00;99.90;;;;;;5037111;28;20220;-81
2023/06/06 01:29:36;;;;;;;5.27;3.43;;;12.00;99.90;;;;;;5041361;28;20255;-81
2023/06/06 01:32:25;;;;;;;4.53;3.80;;;12.00;99.90;;;;;;5041607;28;20284;-82
2023/06/06 01:34:58;;;;;;;8.47;4.23;;;11.90;99.90;;;;;;5041061;28;20221;-80
2023/06/06 01:37:36;;;;;;;4.63;3.70;;;11.90;99.90;;;;;;5038772;28;20480;-81
2023/06/06 01:40:06;;;;;;;5.63;4.00;;;11.90;99.90;;;;;;5038370;28;20309;-82
2023/06/06 01:42:37;;;;;;;7.03;4.43;;;11.90;99.90;;;;;;5034503;28;20248;-82
2023/06/06 01:45:07;;;;;;;5.63;4.10;;;11.80;99.90;;;;;;5040445;28;20310;-82
2023/06/06 01:47:38;;;;;;;6.23;3.93;;;11.80;99.90;;;;;;5041959;28;20912;-80
2023/06/06 01:50:07;;;;;;;6.00;4.20;;;11.70;99.90;;;;;;5039659;28;20236;-82
2023/06/06 01:52:36;;;;;;;4.60;3.90;;;11.70;99.90;;;;;;5041920;28;20234;-81
2023/06/06 01:55:05;;;;;;;6.10;4.60;;;11.70;99.90;;;;;;5044370;28;20312;-82
2023/06/06 01:57:33;;;;;;;5.90;3.93;;;11.60;99.90;;;;;;5039921;28;20719;-81
2023/06/06 02:00:00;;;;;;;5.80;4.17;;;11.60;99.90;;;;;;5042268;28;20271;-82
2023/06/06 02:02:27;;;;;;;6.40;3.93;;;11.60;99.90;;;;;;5041878;28;20235;-80
2023/06/06 02:04:54;;;;;;;6.23;3.80;;;11.50;99.90;;;;;;5035668;28;20450;-82
2023/06/06 02:07:21;;;;;;;6.00;4.03;;;11.50;99.90;;;;;;5040441;28;20631;-83
2023/06/06 02:09:49;;;;;;;6.17;4.33;;;11.50;99.90;;;;;;5030768;28;20220;-83
2023/06/06 02:12:16;;;;;;;4.70;3.50;;;11.40;99.90;;;;;;5051658;28;20480;-82
2023/06/06 02:14:43;;;;;;;5.43;4.10;;;11.40;99.90;;;;;;5038859;28;20221;-82
2023/06/06 02:17:10;;;;;;;6.07;4.57;;;11.40;99.90;;;;;;5045311;28;20231;-82
2023/06/06 02:19:37;;;;;;;5.57;4.03;;;11.40;99.90;;;;;;5039797;28;20231;-81
2023/06/06 02:22:04;;;;;;;5.43;4.00;;;11.30;99.90;;;;;;5035901;28;20946;-81
2023/06/06 02:24:33;;;;;;;4.83;3.83;;;11.30;99.90;;;;;;5039686;28;20293;-81
2023/06/06 02:27:01;;;;;;;5.10;3.97;;;11.30;99.90;;;;;;5037266;28;20239;-81
2023/06/06 02:29:28;;;;;;;4.83;4.27;;;11.30;99.90;;;;;;5049853;28;21205;-81
2023/06/06 02:31:55;;;;;;;7.50;5.07;;;11.20;99.90;;;;;;5037482;28;20253;-81
2023/06/06 02:34:24;;;;;;;5.40;4.03;;;11.20;99.90;;;;;;5042012;28;20312;-80
2023/06/06 02:36:53;;;;;;;6.83;4.80;;;11.20;99.90;;;;;;5042868;28;20221;-80
2023/06/06 02:39:20;;;;;;;5.77;4.57;;;11.20;99.90;;;;;;5046183;28;20605;-80
2023/06/06 02:41:47;;;;;;;5.70;4.70;;;11.10;99.90;;;;;;5050375;28;20232;-81
2023/06/06 02:44:15;;;;;;;7.00;4.67;;;11.10;99.90;;;;;;5051018;28;20452;-81
2023/06/06 02:46:42;;;;;;;7.10;4.53;;;11.10;99.90;;;;;;5046233;28;20261;-81
2023/06/06 02:49:09;;;;;;;6.07;4.67;;;11.00;99.90;;;;;;5041801;28;20219;-82
2023/06/06 02:51:36;;;;;;;6.67;4.90;;;11.00;99.90;;;;;;5041922;28;20228;-81
2023/06/06 02:54:03;;;;;;;7.30;5.10;;;11.00;99.90;;;;;;5043396;28;20301;-80
2023/06/06 02:56:30;;;;;;;6.10;4.97;;;11.00;99.90;;;;;;5049899;28;20642;-82
2023/06/06 02:58:57;;;;;;;8.03;5.50;;;11.00;99.90;;;;;;5057929;28;20220;-82
2023/06/06 03:01:26;;;;;;;6.67;5.50;;;10.90;99.90;;;;;;5045160;28;20232;-80
2023/06/06 03:03:53;;;;;;;7.70;5.73;;;10.90;99.90;;;;;;5043456;28;20248;-80
2023/06/06 03:06:21;;;;;;;6.87;5.40;;;10.90;99.90;;;;;;5047819;28;20293;-81
2023/06/06 03:08:49;;;;;;;5.40;4.40;;;10.90;99.90;;;;;;5051085;28;20223;-81
2023/06/06 03:11:17;;;;;;;7.57;5.60;;;10.90;99.90;;;;;;5040010;28;20247;-80
2023/06/06 03:13:46;;;;;;;7.17;5.40;;;10.90;99.90;;;;;;5046492;28;20223;-81
2023/06/06 03:16:15;;;;;;;9.73;5.60;;;10.90;99.90;;;;;;5036608;28;20223;-79
2023/06/06 03:18:46;;;;;;;8.00;5.47;;;10.90;99.90;;;;;;5042021;28;20228;-81
2023/06/06 03:21:15;;;;;;;6.83;5.00;;;10.90;99.90;;;;;;5040976;28;20215;-82
2023/06/06 03:23:45;;;;;;;6.97;5.53;;;10.80;99.90;;;;;;5047846;28;20752;-79
2023/06/06 03:26:13;;;;;;;7.53;5.30;;;10.80;99.90;;;;;;5041335;28;20246;-81
2023/06/06 03:28:40;;;;;;;7.90;5.63;;;10.80;99.90;;;;;;5062757;28;20231;-79
2023/06/06 03:31:11;;;;;;;7.67;5.87;;;10.90;99.90;;;;;;5036521;28;21007;-82
2023/06/06 03:33:47;;;;;;;8.77;6.20;;;10.80;99.90;;;;;;5041510;28;20233;-82
2023/06/06 03:36:14;;;;;;;9.37;6.40;;;10.90;99.90;;;;;;5053922;23;20717;-77
2023/06/06 03:38:40;;;;;;;8.77;6.47;;;10.80;99.90;;;;;;5042736;28;20582;-76
2023/06/06 03:41:08;;;;;;;9.30;6.70;;;10.90;99.90;;;;;;5044627;28;20922;-77
2023/06/06 03:43:35;;;;;;;10.17;6.73;;;10.90;99.90;;;;;;5042738;28;20653;-79
2023/06/06 03:46:03;;;;;;;8.17;6.43;;;10.90;99.90;;;;;;5043831;28;20221;-79
2023/06/06 03:48:31;;;;;;;9.83;6.60;;;11.00;99.90;;;;;;5038988;28;21037;-79
2023/06/06 03:51:00;;;;;;;10.47;6.20;;;11.00;99.90;;;;;;5037724;28;20227;-79
2023/06/06 03:53:26;;;;;;;9.73;7.43;;;11.00;99.90;;;;;;5041494;28;20813;-80
2023/06/06 03:55:53;;;;;;;9.30;7.00;;;11.00;99.90;;;;;;5033215;28;20244;-80
2023/06/06 03:58:20;;;;;;;11.03;7.57;;;11.10;99.90;;;;;;5035399;28;20267;-79
2023/06/06 04:00:49;;;;;;;9.10;7.00;;;11.10;99.90;;;;;;5043411;28;20220;-79
2023/06/06 04:03:16;;;;;;;9.63;6.90;;;11.10;99.90;;;;;;5042693;28;20228;-79
2023/06/06 04:05:45;;;;;;;9.13;7.17;;;11.20;99.90;;;;;;5041925;28;20318;-79
2023/06/06 04:08:13;;;;;;;10.23;7.07;;;11.20;99.90;;;;;;5054670;28;20561;-79
2023/06/06 04:10:39;;;;;;;10.00;7.33;;;11.20;99.90;;;;;;5039049;28;20224;-78
2023/06/06 04:13:06;;;;;;;9.33;6.90;;;11.30;99.90;;;;;;5034775;28;20797;-79
2023/06/06 04:15:33;;;;;;;9.13;6.77;;;11.30;99.90;;;;;;5037159;28;20308;-79
2023/06/06 04:18:00;;;;;;;10.23;7.03;;;11.40;99.90;;;;;;5044492;28;20224;-79
2023/06/06 04:20:27;;;;;;;8.57;7.00;;;11.40;99.90;;;;;;5039954;28;20220;-79
2023/06/06 04:22:54;;;;;;;10.83;7.20;;;11.50;99.90;;;;;;5041668;28;20303;-79
2023/06/06 04:25:23;;;;;;;8.33;6.57;;;11.60;99.90;;;;;;5043316;28;20246;-78
2023/06/06 04:27:50;;;;;;;8.67;6.80;;;11.70;99.90;;;;;;5043480;28;20297;-79
2023/06/06 04:30:22;;;;;;;8.87;7.10;;;11.70;99.90;;;;;;5039295;28;20241;-78
2023/06/06 04:32:49;;;;;;;10.70;6.43;;;11.70;99.90;;;;;;5037302;28;20308;-78
2023/06/06 04:35:16;;;;;;;8.07;6.43;;;11.80;99.90;;;;;;5035707;28;20304;-78
2023/06/06 04:37:47;;;;;;;9.40;6.57;;;11.90;99.90;;;;;;5051198;28;20264;-80
2023/06/06 04:40:15;;;;;;;12.30;7.53;;;11.90;99.90;;;;;;5039157;28;20229;-79
2023/06/06 04:42:45;;;;;;;9.57;6.80;;;11.90;99.90;;;;;;5038391;28;20717;-79
2023/06/06 04:45:13;;;;;;;9.80;6.37;;;12.00;99.90;;;;;;5040057;28;20227;-79
2023/06/06 04:47:43;;;;;;;9.47;6.80;;;12.00;99.90;;;;;;5043216;28;20247;-80
2023/06/06 04:50:11;;;;;;;9.27;6.07;;;12.10;99.90;;;;;;5046282;28;20306;-81
2023/06/06 04:52:38;;;;;;;7.93;6.23;;;12.20;99.90;;;;;;5038543;28;20223;-79
2023/06/06 04:55:07;;;;;;;9.13;6.00;;;12.20;99.90;;;;;;5033672;28;20236;-79
2023/06/06 04:57:34;;;;;;;6.90;5.93;;;12.30;99.90;;;;;;5039161;28;20232;-79
2023/06/06 05:00:05;;;;;;;7.53;6.47;;;12.40;99.90;;;;;;5036642;28;20227;-80
2023/06/06 05:02:32;;;;;;;8.97;5.77;;;12.50;99.90;;;;;;5051972;28;20235;-79
2023/06/06 05:04:59;;;;;;;9.10;6.43;;;12.50;99.90;;;;;;5039825;28;20698;-79
2023/06/06 05:07:26;;;;;;;6.33;5.30;;;12.60;99.90;;;;;;5040344;28;20625;-80
2023/06/06 05:09:53;;;;;;;7.33;5.80;;;12.70;99.90;;;;;;5039149;28;20318;-80
2023/06/06 05:12:20;;;;;;;9.67;6.33;;;12.80;99.90;;;;;;5040983;28;20355;-78
2023/06/06 05:14:48;;;;;;;9.60;6.33;;;12.80;99.90;;;;;;5041119;28;20230;-80
2023/06/06 05:17:20;;;;;;;8.53;5.10;;;12.90;99.90;;;;;;5039088;28;20236;-80
2023/06/06 05:19:47;;;;;;;6.00;5.07;;;12.90;99.90;;;;;;5039852;28;20314;-80
2023/06/06 05:22:14;;;;;;;6.47;5.10;;;13.00;99.90;;;;;;5043348;28;20227;-80
2023/06/06 05:24:42;;;;;;;6.40;5.37;;;13.00;99.90;;;;;;5036915;28;20311;-80
2023/06/06 05:27:09;;;;;;;7.00;5.37;;;13.10;99.90;;;;;;5037963;28;20387;-80
2023/06/06 05:29:35;;;;;;;6.93;4.90;;;13.20;99.90;;;;;;5044026;28;20310;-80
2023/06/06 05:32:02;;;;;;;7.80;4.40;;;13.30;99.90;;;;;;5036875;28;20572;-80
2023/06/06 05:34:30;;;;;;;6.27;4.73;;;13.30;99.90;;;;;;5045798;28;20717;-80
2023/06/06 05:36:57;;;;;;;9.37;4.97;;;13.40;99.90;;;;;;5045345;28;20224;-80
2023/06/06 05:39:24;;;;;;;7.03;5.10;;;13.50;99.90;;;;;;5044209;28;20232;-80
2023/06/06 05:41:54;;;;;;;6.63;4.77;;;13.50;99.90;;;;;;5042622;28;20227;-80
2023/06/06 05:44:21;;;;;;;6.70;4.57;;;13.50;99.90;;;;;;5047205;28;20666;-80
2023/06/06 05:46:48;;;;;;;9.17;4.43;;;13.60;99.90;;;;;;5043946;28;20220;-80
2023/06/06 05:49:15;;;;;;;7.90;4.60;;;13.70;99.90;;;;;;5055398;28;20235;-80
2023/06/06 05:51:43;;;;;;;5.23;4.10;;;13.80;99.90;;;;;;5044361;28;20307;-80
2023/06/06 05:54:14;;;;;;;7.27;4.60;;;13.80;99.90;;;;;;5043858;28;20218;-80
2023/06/06 05:56:41;;;;;;;9.13;4.33;;;13.90;99.90;;;;;;5041832;28;20260;-80
2023/06/06 05:59:08;;;;;;;6.43;3.90;;;14.00;99.90;;;;;;5046319;28;20772;-80
2023/06/06 06:01:36;;;;;;;5.53;4.10;;;14.10;99.90;;;;;;5036669;28;20693;-80
2023/06/06 06:04:03;;;;;;;6.13;3.93;;;14.10;99.90;;;;;;5048148;28;20663;-80
2023/06/06 06:06:31;;;;;;;7.17;4.43;;;14.20;99.90;;;;;;5038589;28;20231;-80
2023/06/06 06:09:02;;;;;;;5.57;3.93;;;14.30;99.90;;;;;;5043561;28;20227;-80
2023/06/06 06:11:28;;;;;;;6.70;3.67;;;14.40;99.90;;;;;;5043061;28;20370;-80
2023/06/06 06:13:55;;;;;;;4.73;3.53;;;14.50;99.90;;;;;;5039435;28;20227;-80
2023/06/06 06:16:22;;;;;;;4.53;3.73;;;14.50;99.90;;;;;;5041962;28;20238;-80
2023/06/06 06:18:48;;;;;;;7.30;3.90;;;14.60;99.90;;;;;;5045641;28;20220;-79
2023/06/06 06:21:15;;;;;;;5.27;3.70;;;14.70;99.90;;;;;;5044865;28;20244;-80
2023/06/06 06:23:42;;;;;;;8.17;3.73;;;14.70;99.90;;;;;;5039679;28;20659;-79
2023/06/06 06:26:10;;;;;;;5.88;3.50;;;14.80;99.90;;;;;;5044343;28;20741;-78
2023/06/06 06:28:36;;;;;;;4.50;3.47;;;14.90;99.90;;;;;;5039680;28;20763;-78
2023/06/06 06:31:03;;;;;;;7.90;3.60;;;15.20;99.90;;;;;;5038952;28;20706;-77
2023/06/06 06:33:33;;;;;;;5.47;3.75;;;15.40;99.90;;;;;;5039575;28;20255;-78
2023/06/06 06:36:00;;;;;;;6.38;3.17;;;15.70;99.90;;;;;;5038555;28;20234;-79
2023/06/06 06:38:27;;;;;;;6.53;3.60;;;16.00;99.90;;;;;;5041844;28;20227;-79
2023/06/06 06:40:54;;;;;;;3.97;3.10;;;16.20;99.90;;;;;;5037309;28;20240;-79
2023/06/06 06:43:22;;;;;;;4.55;3.17;;;16.40;99.90;;;;;;5044382;28;20227;-79
2023/06/06 06:45:56;;;;;;;4.57;3.20;;;16.60;99.90;;;;;;5039235;28;20234;-79
2023/06/06 06:48:22;;;;;;;4.47;3.40;;;16.70;99.90;;;;;;5038011;28;20220;-79
2023/06/06 06:50:49;;;;;;;5.32;3.45;;;16.80;99.90;;;;;;5038265;28;20232;-79
2023/06/06 06:53:16;;;;;;;6.22;3.10;;;16.90;99.90;;;;;;5032038;28;20212;-79
2023/06/06 06:55:44;;;;;;;4.53;2.80;;;17.00;99.90;;;;;;5044975;28;20228;-79
2023/06/06 06:58:13;;;;;;;5.95;3.53;;;17.00;99.90;;;;;;5037994;28;20216;-79
2023/06/06 07:00:41;;;;;;;4.72;2.90;;;17.10;99.90;;;;;;5037220;28;20228;-79
2023/06/06 07:03:08;;;;;;;4.28;2.80;;;17.30;99.90;;;;;;5037274;28;20252;-78
2023/06/06 07:05:35;;;;;;;4.90;3.10;;;17.70;99.90;;;;;;5039601;28;20249;-79
2023/06/06 07:08:02;;;;;;;9.45;3.00;;;18.30;99.90;;;;;;5047882;28;20246;-79
2023/06/06 07:10:31;;;;;;;4.05;2.95;;;18.90;99.90;;;;;;5038402;28;20227;-78
2023/06/06 07:12:58;;;;;;;6.10;2.78;;;19.70;99.50;;;;;;5035402;28;20227;-78
2023/06/06 07:15:27;;;;;;;4.18;2.88;;;20.40;98.90;;;;;;5038727;28;20225;-78
2023/06/06 07:17:55;;;;;;;5.78;3.28;;;21.10;97.60;;;;;;5030484;28;20228;-78
2023/06/06 07:20:23;;;;;;;4.10;2.78;;;21.80;96.30;;;;;;5037187;28;20224;-78
2023/06/06 07:22:52;;;;;;;4.85;2.92;;;22.40;95.30;;;;;;5040414;28;20351;-78
2023/06/06 07:25:19;;;;;;;3.85;2.63;;;23.00;94.20;;;;;;5041193;28;20645;-78
2023/06/06 07:27:46;;;;;;;3.63;2.40;;;23.60;93.20;;;;;;5044152;28;20224;-78
2023/06/06 07:30:14;;;;;;;3.67;2.60;;;24.10;92.20;;;;;;5048351;28;20228;-78
2023/06/06 07:32:42;;;;;;;3.72;2.72;;;24.70;91.70;;;;;;5044834;28;20279;-78
2023/06/06 07:35:12;;;;;;;4.20;2.08;;;25.30;90.60;;;;;;5043898;28;20689;-78
2023/06/06 07:37:39;;;;;;;4.22;2.40;;;25.80;87.80;;;;;;5040473;28;20252;-78
2023/06/06 07:40:08;;;;;;;4.13;2.50;;;26.40;85.20;;;;;;5038198;28;20243;-78
2023/06/06 07:42:36;;;;;;;5.63;2.22;;;26.80;83.00;;;;;;5038616;28;20325;-78
2023/06/06 07:45:03;;;;;;;4.07;2.78;;;27.20;80.00;;;;;;5038752;28;20432;-78
2023/06/06 07:47:30;;;;;;;2.95;2.60;;;27.50;78.70;;;;;;5045037;28;20243;-78
2023/06/06 07:49:57;;;;;;;4.45;2.75;;;27.70;76.30;;;;;;5045356;28;20768;-78
2023/06/06 07:52:26;;;;;;;5.82;3.15;;;28.00;75.60;;;;;;5042725;28;20227;-78
2023/06/06 07:54:52;;;;;;;4.93;2.47;;;28.20;73.90;;;;;;5036815;28;20224;-78
2023/06/06 07:57:19;;;;;;;5.13;2.92;;;28.50;73.20;;;;;;5033125;28;20240;-77
2023/06/06 07:59:46;;;;;;;6.13;2.70;;;28.70;70.50;;;;;;5042814;28;20713;-79
2023/06/06 08:02:14;;;;;;;4.28;2.92;;;28.90;67.80;;;;;;5046028;28;20328;-78
2023/06/06 08:04:45;;;;;;;6.43;2.97;;;29.10;69.00;;;;;;5042438;28;20224;-78
2023/06/06 08:07:13;;;;;;;3.45;2.47;;;29.20;68.50;;;;;;5053937;28;20641;-78
2023/06/06 08:09:42;;;;;;;4.97;2.80;;;29.30;68.40;;;;;;5042644;28;20216;-78
2023/06/06 08:12:09;;;;;;;4.18;2.60;;;29.50;66.20;;;;;;5047206;28;20278;-78
2023/06/06 08:14:36;;;;;;;4.75;2.75;;;29.70;65.50;;;;;;5046623;28;20216;-79
2023/06/06 08:17:03;;;;;;;3.80;2.70;;;29.90;64.20;;;;;;5043143;28;20306;-79
2023/06/06 08:19:30;;;;;;;5.22;2.58;;;30.00;63.60;;;;;;5040087;28;20221;-79
2023/06/06 08:21:57;;;;;;;4.45;2.70;;;30.10;63.60;;;;;;5045598;28;20220;-79
2023/06/06 08:24:23;;;;;;;5.57;2.95;;;30.30;62.00;;;;;;5044305;28;20227;-78
2023/06/06 08:26:51;;;;;;;5.70;2.38;;;30.50;62.50;;;;;;5041798;28;20689;-79
2023/06/06 08:29:18;;;;;;;4.57;2.75;;;30.70;61.10;;;;;;5044201;28;21013;-79
2023/06/06 08:31:45;;;;;;;5.60;2.55;;;30.80;60.00;;;;;;5047179;28;20232;-79
2023/06/06 08:34:12;;;;;;;2.97;2.15;;;31.00;58.90;;;;;;5047927;28;20247;-79
2023/06/06 08:36:39;;;;;;;2.90;2.55;;;31.10;57.40;;;;;;5044878;28;20230;-78
2023/06/06 08:39:06;;;;;;;3.53;2.15;;;31.30;56.90;;;;;;5048138;28;20694;-79
2023/06/06 08:41:34;;;;;;;3.90;2.53;;;31.40;56.70;;;;;;5042733;28;20224;-79
2023/06/06 08:44:03;;;;;;;2.88;2.10;;;31.60;55.80;;;;;;5046010;28;20281;-78
2023/06/06 08:46:33;;;;;;;3.25;2.42;;;31.80;53.90;;;;;;5045185;28;20847;-79
2023/06/06 08:49:04;;;;;;;4.55;2.30;;;31.80;51.20;;;;;;5040995;28;20232;-78
2023/06/06 08:51:31;;;;;;;2.60;2.10;;;31.90;52.10;;;;;;5044118;28;20212;-78
2023/06/06 08:53:59;;;;;;;2.95;2.55;;;32.00;53.10;;;;;;5043777;28;20757;-78
2023/06/06 08:56:26;;;;;;;3.55;2.35;;;32.00;52.70;;;;;;5040862;28;20232;-78
2023/06/06 08:58:54;;;;;;;4.38;2.30;;;32.10;52.00;;;;;;5043126;28;20557;-78
2023/06/06 09:01:22;;;;;;;3.75;2.58;;;32.10;52.30;;;;;;5046997;28;20227;-78
2023/06/06 09:03:53;;;;;;;2.47;2.00;;;32.20;51.60;;;;;;5046902;28;20225;-78
2023/06/06 09:06:22;;;;;;;3.30;2.05;;;32.30;51.70;;;;;;5044960;28;20224;-78
2023/06/06 09:08:49;;;;;;;3.28;1.90;;;32.60;51.10;;;;;;5041859;28;20216;-78
2023/06/06 09:11:17;;;;;;;4.57;2.40;;;32.80;50.60;;;;;;5041013;28;20220;-78
2023/06/06 09:13:45;;;;;;;3.38;2.38;;;32.90;50.10;;;;;;5040371;28;20278;-78
2023/06/06 09:16:12;;;;;;;5.28;2.58;;;33.00;49.80;;;;;;5043597;28;20223;-79
2023/06/06 09:18:41;;;;;;;3.65;2.65;;;33.10;50.00;;;;;;5044254;28;20223;-78
2023/06/06 09:21:08;;;;;;;2.88;2.03;;;33.20;49.40;;;;;;5036228;28;20228;-78
2023/06/06 09:23:35;;;;;;;4.35;2.45;;;33.30;48.30;;;;;;5037294;28;20252;-78
2023/06/06 09:26:02;;;;;;;4.78;2.42;;;33.40;48.70;;;;;;5042337;28;20314;-78
2023/06/06 09:28:38;;;;;;;3.55;2.20;;;33.40;48.20;;;;;;5046639;28;20719;-78
2023/06/06 09:31:25;;;;;;;3.15;2.40;;;33.40;47.10;;;;;;5040817;28;20220;-77
2023/06/06 09:33:55;;;;;;;3.42;2.60;;;33.30;46.30;;;;;;5048242;28;20221;-78
2023/06/06 09:36:23;;;;;;;4.45;2.30;;;33.30;47.10;;;;;;5058483;28;20289;-78
2023/06/06 09:38:50;;;;;;;3.13;2.10;;;33.20;47.00;;;;;;5041979;28;20228;-77
2023/06/06 09:41:20;;;;;;;5.03;2.30;;;33.20;47.30;;;;;;5043370;23;20232;-80
2023/06/06 09:43:52;;;;;;;3.03;2.30;;;33.20;47.80;;;;;;5048961;28;20619;-79
2023/06/06 09:46:41;;;;;;;3.28;2.10;;;33.30;47.50;;;;;;5020814;28;20231;-80
2023/06/06 09:49:42;;;;;;;3.22;2.30;;;33.60;46.50;;;;;;5003415;28;20225;-79
2023/06/06 09:52:17;;;;;;;5.43;2.47;;;33.70;47.30;;;;;;5004315;28;20273;-80
2023/06/06 09:55:01;;;;;;;4.65;2.60;;;34.00;46.60;;;;;;5014986;28;20224;-80
2023/06/06 09:57:32;;;;;;;4.47;2.63;;;34.10;45.60;;;;;;5032045;28;20224;-80
2023/06/06 10:00:07;;;;;;;3.60;1.85;;;34.30;45.50;;;;;;5020797;28;20303;-81
2023/06/06 10:02:51;;;;;;;3.88;2.15;;;34.50;44.70;;;;;;5015928;28;20375;-81
2023/06/06 10:06:11;;;;;;;;;;;;;;;;;;;;;
2023/06/06 10:08:53;;;;;;;8.23;2.35;;;34.60;43.80;;;;;;4992736;28;20220;-80
2023/06/06 10:11:21;;;;;;;4.20;2.67;;;34.70;44.20;;;;;;5013262;28;20251;-82
2023/06/06 10:13:56;;;;;;;3.30;2.35;;;34.90;44.20;;;;;;5020716;28;20278;-82
2023/06/06 10:16:32;;;;;;;3.35;2.22;;;35.00;43.00;;;;;;5012408;28;20247;-82
2023/06/06 10:19:07;;;;;;;3.10;2.42;;;35.20;43.40;;;;;;5012528;28;20251;-80
2023/06/06 10:21:36;;;;;;;3.63;2.30;;;35.30;42.10;;;;;;5027879;28;20239;-81
2023/06/06 10:24:03;;;;;;;3.85;2.00;;;35.40;42.10;;;;;;5023760;28;20908;-81
2023/06/06 10:26:41;;;;;;;3.17;2.20;;;35.30;41.30;;;;;;5010904;28;20222;-82
2023/06/06 10:29:21;;;;;;;3.97;2.38;;;35.20;41.30;;;;;;5053296;28;20254;-81
2023/06/06 10:32:05;;;;;;;;;;;;;;;;;;;;;
2023/06/06 10:34:45;;;;;;;3.92;2.20;;;35.00;41.10;;;;;;4986832;28;20224;-82
2023/06/06 10:37:17;;;;;;;2.78;2.17;;;35.10;41.00;;;;;;5053623;28;20711;-79
2023/06/06 10:39:47;;;;;;;4.78;2.50;;;35.10;41.40;;;;;;5026422;28;20240;-78
2023/06/06 10:42:14;;;;;;;3.47;2.00;;;35.10;41.10;;;;;;5028234;28;20224;-79
2023/06/06 10:44:55;;;;;;;2.65;2.30;;;35.20;41.00;;;;;;5027819;28;20225;-80
2023/06/06 10:47:27;;;;;;;2.95;2.47;;;35.20;40.00;;;;;;5025422;28;20313;-80
2023/06/06 10:50:21;;;;;;;4.00;2.45;;;35.10;40.20;;;;;;5018196;28;20228;-80
2023/06/06 10:52:51;;;;;;;4.93;2.30;;;35.00;40.20;;;;;;5026463;28;20221;-80
2023/06/06 10:55:38;;;;;;;3.25;2.30;;;34.90;39.90;;;;;;5019696;28;20238;-80
2023/06/06 10:58:06;;;;;;;3.53;1.95;;;34.90;40.50;;;;;;5050207;28;20869;-80
2023/06/06 11:00:34;;;;;;;2.78;2.20;;;34.90;40.40;;;;;;5022246;28;20238;-80
2023/06/06 11:03:05;;;;;;;2.75;2.20;;;34.90;39.90;;;;;;5028331;28;20279;-79
2023/06/06 11:05:32;;;;;;;2.58;2.15;;;34.80;39.60;;;;;;5029644;28;20242;-80
2023/06/06 11:08:01;;;;;;;3.42;2.15;;;34.70;39.60;;;;;;5036939;28;20224;-80
2023/06/06 11:10:28;;;;;;;4.60;2.38;;;34.60;39.90;;;;;;5027413;28;20225;-79
2023/06/06 11:12:55;;;;;;;2.92;2.38;;;34.50;40.00;;;;;;5030203;28;20231;-80
2023/06/06 11:15:30;;;;;;;4.03;2.38;;;34.40;40.10;;;;;;5035882;28;20289;-79
2023/06/06 11:18:02;;;;;;;2.60;2.00;;;34.40;40.10;;;;;;5027941;28;20228;-82
2023/06/06 11:20:30;;;;;;;2.95;2.33;;;34.40;39.90;;;;;;5026036;28;20335;-80
2023/06/06 11:23:01;;;;;;;3.83;2.67;;;34.40;39.80;;;;;;5027708;28;20224;-80
2023/06/06 11:25:31;;;;;;;3.42;2.20;;;34.50;40.70;;;;;;5028796;28;20312;-79
2023/06/06 11:27:58;;;;;;;4.85;2.33;;;34.60;40.70;;;;;;5024562;28;20288;-79
2023/06/06 11:30:25;;;;;;;2.83;2.40;;;34.90;40.00;;;;;;5053363;28;20303;-79
2023/06/06 11:32:52;;;;;;;2.58;2.38;;;35.10;39.60;;;;;;5027106;28;20248;-79
2023/06/06 11:35:20;;;;;;;3.22;2.35;;;35.10;39.40;;;;;;5026714;28;20216;-79
2023/06/06 11:37:47;;;;;;;3.30;2.60;;;35.20;39.40;;;;;;5025782;28;20256;-80
2023/06/06 11:40:14;;;;;;;3.65;2.35;;;35.30;39.00;;;;;;5030380;28;20224;-80
2023/06/06 11:42:45;;;;;;;4.68;2.50;;;35.20;39.00;;;;;;5028691;28;20287;-79
2023/06/06 11:45:14;;;;;;;3.83;2.30;;;35.00;38.40;;;;;;5030600;28;20233;-79
2023/06/06 11:47:40;;;;;;;4.20;2.75;;;34.70;38.40;;;;;;5029887;28;20221;-80
2023/06/06 11:50:08;;;;;;;5.72;2.13;;;34.30;38.30;;;;;;5028666;28;20228;-79
2023/06/06 11:52:44;;;;;;;4.75;2.30;;;34.00;38.70;;;;;;5026738;28;20230;-79
2023/06/06 11:55:11;;;;;;;3.50;2.38;;;33.50;38.30;;;;;;5026476;28;20216;-79
2023/06/06 11:57:38;;;;;;;3.13;2.10;;;33.10;39.20;;;;;;5028048;28;20308;-78
2023/06/06 12:00:12;;;;;;;3.15;2.15;;;32.80;39.60;;;;;;5040555;28;20231;-79
2023/06/06 12:02:40;;;;;;;3.38;2.00;;;32.60;40.30;;;;;;5029624;28;20239;-79
2023/06/06 12:05:17;;;;;;;2.92;2.40;;;32.70;40.00;;;;;;5025315;28;20459;-79
2023/06/06 12:07:44;;;;;;;4.97;2.08;;;32.50;39.60;;;;;;5028367;28;20224;-79
2023/06/06 12:10:11;;;;;;;3.50;2.17;;;32.50;40.10;;;;;;5028746;28;20212;-79
2023/06/06 12:12:45;;;;;;;2.72;2.10;;;32.30;40.30;;;;;;5031518;28;20296;-79
2023/06/06 12:15:13;;;;;;;2.95;2.20;;;32.10;40.10;;;;;;5026809;28;20221;-80
2023/06/06 12:17:39;;;;;;;3.30;2.28;;;31.80;40.60;;;;;;5028828;28;20233;-79
2023/06/06 12:20:07;;;;;;;3.80;2.40;;;31.50;40.30;;;;;;5022769;28;20228;-79
2023/06/06 12:22:35;;;;;;;3.47;2.13;;;31.20;40.60;;;;;;5047556;28;20241;-79
2023/06/06 12:25:02;;;;;;;4.35;2.33;;;31.00;40.40;;;;;;5048594;28;20221;-79
2023/06/06 12:27:33;;;;;;;4.18;2.40;;;30.80;40.60;;;;;;5026723;28;20339;-79
2023/06/06 12:30:01;;;;;;;2.92;2.25;;;30.70;41.00;;;;;;5026066;28;20782;-79
2023/06/06 12:32:30;;;;;;;3.65;2.20;;;30.90;41.10;;;;;;5033473;28;20228;-78
2023/06/06 12:35:01;;;;;;;3.30;2.67;;;31.00;41.20;;;;;;5027827;28;20317;-79
2023/06/06 12:37:38;;;;;;;3.30;2.45;;;31.20;41.30;;;;;;5028571;28;20305;-80
2023/06/06 12:40:14;;;;;;;3.22;2.05;;;31.50;41.80;;;;;;5025470;28;20247;-80
2023/06/06 12:42:42;;;;;;;4.05;2.75;;;31.70;42.00;;;;;;5020886;28;20232;-79
2023/06/06 12:45:09;;;;;;;3.75;2.20;;;32.00;41.20;;;;;;5035741;28;20243;-80
2023/06/06 12:47:37;;;;;;;3.60;2.15;;;32.10;41.30;;;;;;5030608;28;20231;-81
2023/06/06 12:50:05;;;;;;;3.15;2.30;;;32.20;40.70;;;;;;5020144;28;20228;-80
2023/06/06 12:52:33;;;;;;;3.45;2.22;;;32.20;40.90;;;;;;5027225;28;20243;-80
2023/06/06 12:55:00;;;;;;;4.88;2.08;;;32.30;40.60;;;;;;5026376;28;20232;-80
2023/06/06 12:57:26;;;;;;;3.22;2.42;;;32.40;40.40;;;;;;5022797;28;20229;-79